Time;durP1;ratioP1;P1;durP2;ratioP2;P2;SDS_P1;SDS_P2;PMS_P1;PMS_P2;Temp;Humidity;BMP_temperature;BMP_pressure;BME280_temperature;BME280_humidity;BME280_pressure;Samples;Min_cycle;Max_cycle;Signal;HPM_P1;HPM_P2
2022/01/22 00:00:52;;;;;;;130.15;56.25;;;0.20;94.10;;;;;;5033927;28;20064;-55
2022/01/22 00:03:18;;;;;;;130.10;56.83;;;0.40;94.40;;;;;;5033990;28;20075;-60
2022/01/22 00:05:45;;;;;;;117.25;51.03;;;0.50;92.90;;;;;;5033969;28;20384;-58
2022/01/22 00:08:11;;;;;;;111.05;46.88;;;0.60;91.60;;;;;;5033884;28;20022;-58
2022/01/22 00:10:41;;;;;;;96.72;45.03;;;0.60;91.20;;;;;;5034398;28;20025;-55
2022/01/22 00:14:23;;;;;;;109.80;47.95;;;0.70;91.80;;;;;;5034167;28;20091;-54
2022/01/22 00:15:53;;;;;;;91.25;41.45;;;0.70;90.70;;;;;;5033607;28;20456;-62
2022/01/22 00:18:18;;;;;;;92.70;43.28;;;0.60;91.70;;;;;;5033752;28;20082;-55
2022/01/22 00:20:46;;;;;;;99.45;40.60;;;0.60;92.10;;;;;;5033490;28;20472;-58
2022/01/22 00:23:12;;;;;;;113.10;46.13;;;0.60;92.00;;;;;;5033515;28;20083;-59
2022/01/22 00:25:38;;;;;;;139.83;56.13;;;0.70;91.60;;;;;;5033512;28;20112;-60
2022/01/22 00:28:04;;;;;;;126.82;54.20;;;0.70;91.40;;;;;;5033832;28;20027;-59
2022/01/22 00:30:29;;;;;;;124.57;52.83;;;0.70;91.40;;;;;;5033419;28;20040;-61
2022/01/22 00:32:55;;;;;;;115.43;51.88;;;0.70;92.00;;;;;;5033490;28;20036;-55
2022/01/22 00:35:22;;;;;;;100.07;44.22;;;0.70;92.60;;;;;;5033251;28;20448;-59
2022/01/22 00:37:50;;;;;;;101.35;46.92;;;0.80;93.10;;;;;;5033334;28;20025;-57
2022/01/22 00:40:17;;;;;;;101.50;47.07;;;0.80;92.00;;;;;;5033443;28;20114;-53
2022/01/22 00:42:44;;;;;;;99.43;44.65;;;0.80;91.60;;;;;;5033273;28;20490;-51
2022/01/22 00:45:11;;;;;;;118.07;49.83;;;1.00;90.40;;;;;;5033230;28;20036;-54
2022/01/22 00:47:37;;;;;;;108.85;47.13;;;1.10;87.80;;;;;;5033605;28;20029;-58
2022/01/22 00:50:06;;;;;;;98.25;45.25;;;1.10;89.20;;;;;;5033091;28;20475;-57
2022/01/22 00:52:31;;;;;;;100.35;46.30;;;1.10;90.50;;;;;;5033225;28;20033;-59
2022/01/22 00:54:57;;;;;;;96.68;43.10;;;1.10;90.60;;;;;;5033246;28;20052;-53
2022/01/22 00:57:23;;;;;;;100.45;45.90;;;1.10;90.40;;;;;;5033213;28;20026;-56
2022/01/22 00:59:49;;;;;;;121.88;49.90;;;1.20;90.00;;;;;;5033359;28;20112;-61
2022/01/22 01:02:14;;;;;;;113.18;48.38;;;1.20;85.70;;;;;;5033131;28;20365;-54
2022/01/22 01:04:40;;;;;;;92.28;40.65;;;1.20;85.90;;;;;;5032993;28;20080;-55
2022/01/22 01:07:06;;;;;;;77.60;36.95;;;1.10;87.00;;;;;;5033132;28;20025;-55
2022/01/22 01:09:34;;;;;;;106.55;44.13;;;1.20;86.40;;;;;;5033042;28;20479;-58
2022/01/22 01:12:03;;;;;;;93.07;41.03;;;1.20;87.30;;;;;;5033001;28;20031;-58
2022/01/22 01:14:37;;;;;;;107.97;45.72;;;1.20;88.50;;;;;;5032958;28;20048;-58
2022/01/22 01:33:30;;;;;;;105.47;45.90;;;1.20;89.30;;;;;;5036662;28;20152;-56
2022/01/22 01:35:56;;;;;;;96.88;44.47;;;1.10;87.70;;;;;;5036713;28;20025;-54
2022/01/22 01:38:23;;;;;;;84.13;40.30;;;1.20;88.50;;;;;;5036784;28;20026;-58
2022/01/22 01:41:04;;;;;;;94.70;40.97;;;1.20;88.50;;;;;;5036485;28;20435;-59
2022/01/22 01:43:35;;;;;;;96.45;42.58;;;1.20;86.80;;;;;;5036615;28;20097;-60
2022/01/22 01:46:01;;;;;;;102.63;46.78;;;1.20;88.10;;;;;;5035343;28;20438;-57
2022/01/22 01:48:31;;;;;;;98.60;44.50;;;1.30;86.10;;;;;;5036270;28;20013;-58
2022/01/22 01:50:58;;;;;;;115.82;52.60;;;1.30;88.00;;;;;;5036553;28;20129;-61
2022/01/22 01:57:27;;;;;;;180.43;79.63;;;1.40;86.20;;;;;;5036386;28;20025;-57
2022/01/22 01:58:55;;;;;;;199.57;86.22;;;1.50;87.10;;;;;;5036110;28;20104;-60
2022/01/22 02:01:22;;;;;;;196.00;89.55;;;1.40;89.60;;;;;;5036286;28;20025;-60
2022/01/22 02:03:48;;;;;;;186.93;87.20;;;1.30;89.20;;;;;;5036308;28;20022;-60
2022/01/22 02:06:14;;;;;;;237.77;105.95;;;1.20;90.00;;;;;;5036158;28;20017;-54
2022/01/22 02:08:40;;;;;;;179.90;83.15;;;1.00;91.80;;;;;;5036441;28;20025;-54
2022/01/22 02:11:07;;;;;;;167.05;76.75;;;0.90;92.70;;;;;;5036430;28;20383;-56
2022/01/22 02:24:15;;;;;;;156.25;63.88;;;0.70;94.30;;;;;;5035864;28;20103;-53
2022/01/22 02:26:49;;;;;;;135.20;57.00;;;0.60;95.10;;;;;;5036064;28;20116;-52
2022/01/22 02:29:15;;;;;;;123.25;55.38;;;0.60;94.90;;;;;;5035717;28;20032;-58
2022/01/22 02:32:00;;;;;;;151.15;63.17;;;0.60;95.10;;;;;;5035559;28;20044;-52
2022/01/22 02:34:41;;;;;;;124.25;52.28;;;0.50;95.20;;;;;;5034761;28;20391;-50
2022/01/22 02:37:12;;;;;;;113.97;51.97;;;0.40;95.80;;;;;;5035616;28;20395;-55
2022/01/22 02:39:43;;;;;;;139.73;63.33;;;0.40;95.90;;;;;;5035570;28;20460;-57
2022/01/22 02:42:09;;;;;;;131.23;56.00;;;0.40;95.90;;;;;;5035351;28;20033;-56
2022/01/22 02:44:43;;;;;;;143.40;62.33;;;0.20;96.70;;;;;;5035734;28;20023;-56
2022/01/22 02:47:09;;;;;;;104.38;47.13;;;0.10;96.50;;;;;;5035414;28;20021;-56
2022/01/22 02:49:35;;;;;;;117.95;48.35;;;-0.10;97.20;;;;;;5035801;28;20080;-62
2022/01/22 02:52:04;;;;;;;93.07;43.13;;;-0.10;97.50;;;;;;5035665;28;20035;-54
2022/01/22 02:54:30;;;;;;;95.80;42.43;;;-0.10;97.20;;;;;;5035275;28;20022;-56
2022/01/22 02:56:56;;;;;;;79.35;37.15;;;0.00;96.10;;;;;;5035374;28;20036;-59
2022/01/22 02:59:23;;;;;;;78.07;37.97;;;0.10;96.40;;;;;;5035118;28;20018;-57
2022/01/22 03:01:50;;;;;;;131.93;56.08;;;0.10;95.70;;;;;;5035364;28;20047;-59
2022/01/22 03:04:16;;;;;;;99.75;47.53;;;0.20;95.60;;;;;;5035107;28;20068;-57
2022/01/22 03:06:43;;;;;;;133.52;54.63;;;0.30;95.20;;;;;;5035081;28;20018;-56
2022/01/22 03:09:11;;;;;;;124.93;50.77;;;0.00;96.50;;;;;;5035018;28;20025;-62
2022/01/22 03:11:47;;;;;;;131.17;54.63;;;-0.30;99.20;;;;;;5034923;28;20032;-60
2022/01/22 03:19:53;;;;;;;102.00;45.87;;;-1.60;99.90;;;;;;5035150;28;20061;-58
2022/01/22 03:22:28;;;;;;;103.03;41.07;;;-1.80;99.90;;;;;;5034730;28;20080;-55
2022/01/22 03:27:38;;;;;;;;;;;-2.10;99.90;;;;;;5035239;28;20041;-57
2022/01/22 03:30:05;;;;;;;64.17;31.10;;;-1.90;99.90;;;;;;5034404;28;19905;-57
2022/01/22 03:32:40;;;;;;;85.10;39.47;;;-2.00;99.90;;;;;;5034463;28;20037;-59
2022/01/22 03:35:27;;;;;;;86.20;37.37;;;-2.00;99.90;;;;;;5034521;28;20025;-59
2022/01/22 03:37:55;;;;;;;107.57;46.20;;;-2.00;99.90;;;;;;5034647;28;20391;-55
2022/01/22 03:40:24;;;;;;;78.57;38.03;;;-2.00;99.90;;;;;;5034652;28;20072;-54
2022/01/22 03:42:52;;;;;;;78.37;36.60;;;-2.00;99.90;;;;;;5034057;28;20490;-60
2022/01/22 03:45:20;;;;;;;69.13;30.33;;;-1.90;99.90;;;;;;5034017;28;20167;-57
2022/01/22 03:47:46;;;;;;;61.83;27.43;;;-1.70;99.90;;;;;;5034252;28;20061;-58
2022/01/22 03:50:13;;;;;;;74.60;33.60;;;-1.40;99.90;;;;;;5034323;28;20103;-59
2022/01/22 03:52:39;;;;;;;91.87;41.93;;;-1.30;99.90;;;;;;5034140;28;20032;-54
2022/01/22 03:55:09;;;;;;;77.63;34.57;;;-1.40;99.90;;;;;;5034209;28;20180;-52
2022/01/22 03:57:35;;;;;;;75.80;33.50;;;-1.30;99.90;;;;;;5033997;28;20026;-57
2022/01/22 04:00:02;;;;;;;68.43;31.27;;;-1.30;99.90;;;;;;5034287;28;20017;-58
2022/01/22 04:05:12;;;;;;;95.90;40.97;;;-1.10;99.90;;;;;;5033936;28;20036;-53
2022/01/22 04:10:10;;;;;;;64.77;29.37;;;-1.00;99.90;;;;;;5033935;28;20542;-61
2022/01/22 04:15:09;;;;;;;102.90;44.40;;;-0.90;99.90;;;;;;5033874;28;20373;-57
2022/01/22 04:25:35;;;;;;;93.25;41.20;;;-0.90;99.90;;;;;;5033795;28;20469;-54
2022/01/22 04:28:01;;;;;;;75.27;32.47;;;-1.00;99.90;;;;;;5033715;28;20132;-60
2022/01/22 04:30:28;;;;;;;69.50;33.70;;;-1.00;99.90;;;;;;5033480;28;20391;-52
2022/01/22 04:32:54;;;;;;;71.83;32.77;;;-1.00;99.90;;;;;;5033761;28;20384;-54
2022/01/22 04:35:22;;;;;;;88.37;41.97;;;-1.00;99.50;;;;;;5033564;28;20025;-60
2022/01/22 04:37:49;;;;;;;101.87;49.10;;;-1.10;99.90;;;;;;5033484;28;20108;-53
2022/01/22 04:40:15;;;;;;;99.27;45.13;;;-1.30;99.90;;;;;;5033347;28;20020;-57
2022/01/22 04:42:42;;;;;;;74.13;36.13;;;-1.50;99.90;;;;;;5033163;28;20026;-60
2022/01/22 04:45:26;;;;;;;82.33;36.23;;;-1.70;99.90;;;;;;5033260;28;20553;-58
2022/01/22 04:48:12;;;;;;;77.07;34.97;;;-1.60;99.90;;;;;;5033675;28;20033;-54
2022/01/22 04:55:48;;;;;;;65.40;33.23;;;-1.20;99.90;;;;;;5033536;28;20030;-59
2022/01/22 04:58:14;;;;;;;80.67;38.17;;;-1.10;99.90;;;;;;5032583;28;20025;-54
2022/01/22 05:00:43;;;;;;;86.77;40.70;;;-1.20;99.90;;;;;;5033127;28;20384;-58
2022/01/22 05:03:09;;;;;;;100.80;45.90;;;-1.30;99.90;;;;;;5033050;28;20025;-56
2022/01/22 05:05:34;;;;;;;92.60;37.60;;;-1.40;99.90;;;;;;5033151;28;20028;-60
2022/01/22 05:08:00;;;;;;;135.27;56.80;;;-1.40;99.90;;;;;;5033111;28;20025;-57
2022/01/22 05:10:26;;;;;;;102.03;43.67;;;-1.30;99.90;;;;;;5033012;28;20031;-54
2022/01/22 05:12:53;;;;;;;110.83;46.20;;;-1.30;99.90;;;;;;5033225;28;20387;-55
2022/01/22 05:15:20;;;;;;;120.87;50.67;;;-1.20;99.90;;;;;;5033138;28;20025;-51
2022/01/22 05:17:47;;;;;;;215.77;81.37;;;-1.30;99.90;;;;;;5033228;28;20100;-58
2022/01/22 05:20:24;;;;;;;159.93;62.70;;;-1.40;99.90;;;;;;5033136;28;20029;-57
2022/01/22 05:25:28;;;;;;;114.60;44.70;;;-1.50;99.90;;;;;;5032797;28;20049;-55
2022/01/22 05:38:33;;;;;;;83.70;35.90;;;-1.10;99.90;;;;;;5033172;28;20048;-62
2022/01/22 05:40:59;;;;;;;78.53;34.97;;;-1.00;99.90;;;;;;5032464;28;20468;-59
2022/01/22 05:43:24;;;;;;;89.90;39.30;;;-0.90;99.90;;;;;;5032736;28;20030;-54
2022/01/22 05:45:50;;;;;;;73.50;33.17;;;-0.80;99.90;;;;;;5032900;28;20017;-57
2022/01/22 05:48:16;;;;;;;64.20;31.33;;;-0.80;99.60;;;;;;5032649;28;20056;-56
2022/01/22 05:50:53;;;;;;;65.23;29.50;;;-0.90;98.80;;;;;;5033065;28;20088;-54
2022/01/22 06:01:15;;;;;;;69.10;32.47;;;-0.80;98.30;;;;;;5041196;28;20032;-61
2022/01/22 06:03:40;;;;;;;90.30;43.20;;;-0.90;98.40;;;;;;5032560;28;20083;-59
2022/01/22 06:06:06;;;;;;;80.90;38.47;;;-0.90;98.50;;;;;;5032545;28;20022;-52
2022/01/22 06:08:41;;;;;;;76.70;39.70;;;-1.00;98.80;;;;;;5033404;28;20029;-60
2022/01/22 06:11:09;;;;;;;75.23;35.67;;;-0.90;99.40;;;;;;5036385;28;20033;-59
2022/01/22 06:13:46;;;;;;;96.97;43.07;;;-0.90;99.00;;;;;;5036299;28;20130;-57
2022/01/22 06:16:30;;;;;;;87.10;40.90;;;-0.90;98.30;;;;;;5036125;28;20483;-54
2022/01/22 06:18:56;;;;;;;72.68;33.97;;;-0.90;98.80;;;;;;5035950;28;20025;-56
2022/01/22 06:21:21;;;;;;;73.77;35.37;;;-0.90;99.30;;;;;;5035907;28;20028;-58
2022/01/22 06:23:47;;;;;;;60.03;30.80;;;-0.90;99.00;;;;;;5035531;28;20058;-51
2022/01/22 06:26:14;;;;;;;64.90;33.00;;;-0.90;99.50;;;;;;5036034;28;20021;-62
2022/01/22 06:28:41;;;;;;;63.90;31.30;;;-0.80;98.80;;;;;;5035736;28;20582;-56
2022/01/22 06:31:07;;;;;;;66.03;31.93;;;-0.80;98.20;;;;;;5036098;28;20021;-56
2022/01/22 06:33:33;;;;;;;81.93;38.97;;;-0.70;97.50;;;;;;5035919;28;20435;-59
2022/01/22 06:35:59;;;;;;;60.30;29.67;;;-0.70;97.40;;;;;;5035674;28;20100;-57
2022/01/22 06:38:25;;;;;;;79.40;36.40;;;-0.70;98.10;;;;;;5035445;28;20132;-55
2022/01/22 06:43:34;;;;;;;;;;;-0.60;97.10;;;;;;5036037;28;20040;-56
2022/01/22 06:46:00;;;;;;;115.10;53.50;;;-0.50;96.40;;;;;;5035520;28;20332;-57
2022/01/22 06:48:26;;;;;;;128.40;61.07;;;-0.60;97.70;;;;;;5035349;28;20029;-58
2022/01/22 06:50:53;;;;;;;142.77;63.67;;;-0.60;97.60;;;;;;5035521;28;20115;-55
2022/01/22 06:53:18;;;;;;;114.73;52.93;;;-0.70;97.60;;;;;;5035215;28;20029;-57
2022/01/22 06:55:55;;;;;;;101.73;47.77;;;-0.70;97.40;;;;;;5035271;28;20040;-55
2022/01/22 06:58:21;;;;;;;82.77;40.93;;;-0.70;96.40;;;;;;5035521;28;20064;-54
2022/01/22 07:00:47;;;;;;;82.00;38.20;;;-0.70;97.20;;;;;;5035122;28;20430;-55
2022/01/22 07:03:13;;;;;;;77.70;38.20;;;-0.50;96.80;;;;;;5035053;28;20100;-58
2022/01/22 07:05:38;;;;;;;87.77;40.80;;;-0.40;96.20;;;;;;5035117;28;20021;-59
2022/01/22 07:08:04;;;;;;;76.33;36.67;;;-0.30;95.30;;;;;;5035205;28;20018;-55
2022/01/22 07:10:31;;;;;;;90.17;45.67;;;-0.20;95.60;;;;;;5034895;28;20022;-51
2022/01/22 07:12:57;;;;;;;73.03;36.77;;;-0.10;94.90;;;;;;5034937;28;20100;-55
2022/01/22 07:15:23;;;;;;;74.40;35.03;;;0.00;94.60;;;;;;5034953;28;20125;-58
2022/01/22 07:17:48;;;;;;;123.33;61.80;;;0.00;93.60;;;;;;5035023;28;20076;-57
2022/01/22 07:20:18;;;;;;;95.17;48.23;;;0.10;91.90;;;;;;5034212;28;20029;-61
2022/01/22 07:22:51;;;;;;;92.53;46.53;;;0.00;93.10;;;;;;5034822;28;20047;-57
2022/01/22 07:25:17;;;;;;;117.47;52.50;;;0.00;93.30;;;;;;5034418;28;20049;-51
2022/01/22 07:27:44;;;;;;;97.83;45.60;;;0.10;93.50;;;;;;5034999;28;20032;-59
2022/01/22 07:30:10;;;;;;;86.03;42.27;;;0.10;92.70;;;;;;5034671;28;20022;-57
2022/01/22 07:32:40;;;;;;;82.77;39.23;;;0.10;92.50;;;;;;5034797;28;20060;-61
2022/01/22 07:35:07;;;;;;;77.50;37.53;;;0.10;92.10;;;;;;5034360;28;20022;-56
2022/01/22 07:37:36;;;;;;;67.90;36.53;;;0.20;91.90;;;;;;5034780;28;20050;-60
2022/01/22 07:40:04;;;;;;;76.00;37.47;;;0.20;91.30;;;;;;5034345;28;20105;-57
2022/01/22 07:42:30;;;;;;;80.27;38.97;;;0.20;91.00;;;;;;5034658;28;20407;-56
2022/01/22 07:44:55;;;;;;;66.17;35.50;;;0.30;91.90;;;;;;5034412;28;20030;-56
2022/01/22 07:47:21;;;;;;;73.87;37.17;;;0.40;91.50;;;;;;5034162;28;20028;-54
2022/01/22 07:49:47;;;;;;;63.60;33.83;;;0.50;91.50;;;;;;5034133;28;20021;-59
2022/01/22 07:52:12;;;;;;;64.23;32.47;;;0.50;90.80;;;;;;5034297;28;20389;-54
2022/01/22 07:54:38;;;;;;;56.47;31.75;;;0.60;90.10;;;;;;5034090;28;20075;-60
2022/01/22 07:57:04;;;;;;;60.23;31.47;;;0.50;89.40;;;;;;5034112;28;20087;-59
2022/01/22 07:59:31;;;;;;;83.10;40.97;;;0.60;86.50;;;;;;5034078;28;20455;-59
2022/01/22 08:01:56;;;;;;;59.75;30.90;;;0.60;86.10;;;;;;5033904;28;20026;-58
2022/01/22 08:04:24;;;;;;;66.03;34.13;;;0.60;86.90;;;;;;5034346;28;20365;-55
2022/01/22 08:06:51;;;;;;;69.93;35.30;;;0.60;85.90;;;;;;5034065;28;20025;-58
2022/01/22 08:09:17;;;;;;;80.33;40.60;;;0.60;89.90;;;;;;5033808;28;20028;-60
2022/01/22 08:11:42;;;;;;;69.20;34.95;;;0.70;85.70;;;;;;5034022;28;20014;-55
2022/01/22 08:14:10;;;;;;;73.72;39.55;;;0.70;84.90;;;;;;5033844;28;20022;-60
2022/01/22 08:16:36;;;;;;;128.60;60.93;;;0.80;80.90;;;;;;5033738;28;20029;-54
2022/01/22 08:19:03;;;;;;;141.48;65.95;;;1.00;81.00;;;;;;5033500;28;20055;-53
2022/01/22 08:21:28;;;;;;;156.98;68.63;;;1.10;80.60;;;;;;5033650;28;20075;-56
2022/01/22 08:23:54;;;;;;;169.73;78.15;;;1.10;79.50;;;;;;5033402;28;20057;-60
2022/01/22 08:26:25;;;;;;;194.25;88.22;;;1.20;78.30;;;;;;5033773;28;20022;-58
2022/01/22 08:28:53;;;;;;;203.02;87.20;;;1.20;76.90;;;;;;5033595;28;20029;-57
2022/01/22 08:31:50;;;;;;;177.38;76.65;;;0.90;79.70;;;;;;5033157;28;20091;-54
2022/01/22 08:36:54;;;;;;;167.40;75.53;;;1.10;80.80;;;;;;5033582;28;20105;-61
2022/01/22 08:39:20;;;;;;;159.40;73.18;;;1.10;82.40;;;;;;5033374;28;20033;-60
2022/01/22 08:41:46;;;;;;;148.30;67.88;;;1.00;90.40;;;;;;5033386;28;20022;-53
2022/01/22 08:44:13;;;;;;;136.35;62.72;;;1.10;90.60;;;;;;5033208;28;20415;-59
2022/01/22 08:46:38;;;;;;;104.07;52.25;;;1.10;92.00;;;;;;5033612;28;20033;-54
2022/01/22 08:49:05;;;;;;;103.45;47.40;;;1.20;90.90;;;;;;5033259;28;20081;-54
2022/01/22 08:51:33;;;;;;;104.80;47.60;;;1.30;90.80;;;;;;5033155;28;20022;-55
2022/01/22 08:54:03;;;;;;;95.95;44.20;;;1.30;90.60;;;;;;5033546;28;20017;-57
2022/01/22 08:56:29;;;;;;;112.50;50.85;;;1.40;91.50;;;;;;5033499;28;20029;-59
2022/01/22 08:58:55;;;;;;;102.00;45.25;;;1.30;90.80;;;;;;5033436;28;20048;-56
2022/01/22 09:01:21;;;;;;;114.22;51.13;;;1.20;92.30;;;;;;5033113;28;20419;-54
2022/01/22 09:03:49;;;;;;;83.45;40.83;;;1.30;93.40;;;;;;5033141;28;20033;-55
2022/01/22 09:06:17;;;;;;;89.18;41.63;;;1.40;93.30;;;;;;5033027;28;20028;-62
2022/01/22 09:08:44;;;;;;;73.15;37.83;;;1.50;93.50;;;;;;5033146;28;20056;-62
2022/01/22 09:11:10;;;;;;;94.00;44.90;;;1.50;92.90;;;;;;5033042;28;20034;-56
2022/01/22 09:13:36;;;;;;;70.60;34.58;;;1.60;92.80;;;;;;5033216;28;20033;-57
2022/01/22 09:16:02;;;;;;;72.70;35.95;;;1.60;93.00;;;;;;5033151;28;20155;-53
2022/01/22 09:18:28;;;;;;;83.28;39.22;;;1.70;92.50;;;;;;5032875;28;20507;-55
2022/01/22 09:23:19;;;;;;;108.45;51.83;;;2.00;92.30;;;;;;5032891;28;20030;-58
2022/01/22 09:25:46;;;;;;;91.25;44.72;;;1.90;94.50;;;;;;5032778;28;20534;-57
2022/01/22 09:28:13;;;;;;;98.28;46.60;;;1.80;94.70;;;;;;5032891;28;20018;-60
2022/01/22 09:30:41;;;;;;;97.80;47.08;;;1.80;94.80;;;;;;5032960;28;20407;-56
2022/01/22 09:33:07;;;;;;;89.50;43.47;;;1.80;96.30;;;;;;5032737;28;20033;-62
2022/01/22 09:35:33;;;;;;;86.93;44.13;;;1.80;97.10;;;;;;5033087;28;20112;-53
2022/01/22 09:38:00;;;;;;;76.03;40.28;;;1.80;97.30;;;;;;5033165;28;20032;-56
2022/01/22 09:40:28;;;;;;;64.60;36.03;;;1.80;97.00;;;;;;5032857;28;20492;-54
2022/01/22 09:42:53;;;;;;;80.47;38.58;;;1.90;96.70;;;;;;5032808;28;20112;-58
2022/01/22 09:45:21;;;;;;;72.47;36.53;;;2.10;94.40;;;;;;5036626;28;20451;-60
2022/01/22 09:47:48;;;;;;;78.68;40.90;;;2.10;93.20;;;;;;5036497;28;20029;-57
2022/01/22 09:50:17;;;;;;;76.00;39.22;;;2.20;95.10;;;;;;5036471;28;20052;-58
2022/01/22 09:52:45;;;;;;;80.20;43.38;;;2.20;96.20;;;;;;5036403;28;20134;-55
2022/01/22 09:55:11;;;;;;;78.60;41.78;;;2.20;96.00;;;;;;5036759;28;20426;-55
2022/01/22 09:57:37;;;;;;;82.22;41.67;;;2.40;94.70;;;;;;5036325;28;20100;-62
2022/01/22 10:00:15;;;;;;;100.55;49.47;;;2.50;94.50;;;;;;5036285;28;20376;-51
2022/01/22 10:02:53;;;;;;;82.82;41.42;;;2.60;96.90;;;;;;5034995;28;20492;-60
2022/01/22 10:05:27;;;;;;;87.47;42.38;;;2.70;96.20;;;;;;5036373;28;20151;-58
2022/01/22 10:07:53;;;;;;;74.28;38.08;;;2.80;97.10;;;;;;5036233;28;20096;-58
2022/01/22 10:10:20;;;;;;;52.15;28.02;;;2.80;96.80;;;;;;5036067;28;20535;-57
2022/01/22 10:12:48;;;;;;;48.30;23.98;;;2.80;98.60;;;;;;5036155;28;20387;-60
2022/01/22 10:15:18;;;;;;;52.85;24.15;;;2.50;99.90;;;;;;5035962;28;20022;-57
2022/01/22 10:17:55;;;;;;;39.83;21.83;;;2.40;99.90;;;;;;5036213;28;20032;-56
2022/01/22 10:20:21;;;;;;;43.15;23.25;;;2.30;99.90;;;;;;5036094;28;20487;-50
2022/01/22 10:22:59;;;;;;;37.72;21.40;;;2.10;99.90;;;;;;5035769;28;20033;-56
2022/01/22 10:25:36;;;;;;;38.75;21.90;;;2.10;99.90;;;;;;5035768;28;20054;-59
2022/01/22 10:28:20;;;;;;;43.17;23.05;;;2.10;99.90;;;;;;5035879;28;20380;-54
2022/01/22 10:30:50;;;;;;;45.22;22.77;;;2.00;99.90;;;;;;5035701;28;20057;-57
2022/01/22 10:33:29;;;;;;;51.60;27.75;;;1.90;99.90;;;;;;5035786;28;20029;-56
2022/01/22 10:36:10;;;;;;;45.53;23.73;;;1.80;99.90;;;;;;5035732;28;20029;-58
2022/01/22 10:39:06;;;;;;;44.35;25.20;;;1.80;99.90;;;;;;5035948;28;20094;-49
2022/01/22 10:41:41;;;;;;;45.10;23.25;;;1.90;99.90;;;;;;5034861;28;20030;-51
2022/01/22 10:44:14;;;;;;;45.38;23.80;;;2.00;99.90;;;;;;5035165;28;20460;-58
2022/01/22 10:46:51;;;;;;;46.97;23.75;;;2.10;99.90;;;;;;5035429;28;20518;-54
2022/01/22 10:49:24;;;;;;;42.65;22.40;;;2.10;99.90;;;;;;5035323;28;20071;-52
2022/01/22 10:51:56;;;;;;;46.20;23.73;;;2.20;99.90;;;;;;5035411;28;20025;-59
2022/01/22 10:54:24;;;;;;;43.63;21.35;;;2.20;99.90;;;;;;5035020;28;20064;-54
2022/01/22 10:56:52;;;;;;;44.33;23.23;;;2.20;99.90;;;;;;5034878;28;20387;-48
2022/01/22 10:59:20;;;;;;;40.47;21.25;;;2.20;99.90;;;;;;5035105;28;20500;-51
2022/01/22 11:01:53;;;;;;;39.60;21.38;;;2.10;99.90;;;;;;5035055;28;20498;-62
2022/01/22 11:04:22;;;;;;;37.70;20.30;;;1.90;99.90;;;;;;5035426;28;20076;-60
2022/01/22 11:07:06;;;;;;;44.92;22.90;;;1.80;99.90;;;;;;5035133;28;20025;-55
2022/01/22 11:09:32;;;;;;;45.03;22.23;;;1.90;99.90;;;;;;5035384;28;20025;-54
2022/01/22 11:12:00;;;;;;;63.47;28.25;;;1.90;99.90;;;;;;5034949;28;20037;-57
2022/01/22 11:14:28;;;;;;;77.93;34.05;;;2.00;99.90;;;;;;5034684;28;20026;-55
2022/01/22 11:16:54;;;;;;;107.80;41.58;;;2.10;99.90;;;;;;5035268;28;20022;-58
2022/01/22 11:19:24;;;;;;;105.47;40.42;;;2.20;99.90;;;;;;5034840;28;20103;-57
2022/01/22 11:21:54;;;;;;;82.65;36.08;;;2.10;99.90;;;;;;5034618;28;20056;-60
2022/01/22 11:24:23;;;;;;;77.10;34.42;;;2.20;99.90;;;;;;5034748;28;20077;-53
2022/01/22 11:27:09;;;;;;;84.40;36.15;;;2.30;99.90;;;;;;5034626;28;20391;-59
2022/01/22 11:29:55;;;;;;;102.47;42.53;;;2.40;99.90;;;;;;5034631;28;20021;-58
2022/01/22 11:32:26;;;;;;;98.15;41.53;;;2.30;99.90;;;;;;5034548;28;20033;-58
2022/01/22 11:34:58;;;;;;;89.35;40.63;;;2.30;99.90;;;;;;5034580;28;20116;-60
2022/01/22 11:37:34;;;;;;;87.72;39.75;;;2.20;99.90;;;;;;5034580;28;20028;-64
2022/01/22 11:40:14;;;;;;;68.40;32.42;;;2.20;99.90;;;;;;5034361;28;20109;-54
2022/01/22 11:43:09;;;;;;;67.05;33.88;;;2.40;99.90;;;;;;5034217;28;20485;-60
2022/01/22 11:45:45;;;;;;;62.50;33.58;;;2.50;99.90;;;;;;5034378;28;20040;-52
2022/01/22 11:48:16;;;;;;;72.45;37.15;;;2.40;99.90;;;;;;5034253;28;20061;-59
2022/01/22 11:50:44;;;;;;;55.45;30.92;;;2.40;99.90;;;;;;5034332;28;20018;-53
2022/01/22 11:53:29;;;;;;;57.80;31.23;;;2.50;99.90;;;;;;5034306;28;20030;-54
2022/01/22 11:56:10;;;;;;;55.08;29.98;;;2.50;99.90;;;;;;5033989;28;20036;-57
2022/01/22 11:59:01;;;;;;;51.60;29.48;;;2.50;99.90;;;;;;5034005;28;20024;-60
2022/01/22 12:01:52;;;;;;;50.38;27.75;;;2.60;99.90;;;;;;5034015;28;20455;-54
2022/01/22 12:04:21;;;;;;;58.45;29.75;;;2.60;99.90;;;;;;5034258;28;20041;-58
2022/01/22 12:07:02;;;;;;;43.72;24.08;;;2.50;99.90;;;;;;5033785;28;20476;-57
2022/01/22 12:09:52;;;;;;;52.03;26.77;;;2.60;99.90;;;;;;5032654;28;20395;-57
2022/01/22 12:15:23;;;;;;;44.40;25.00;;;2.60;99.90;;;;;;5033972;28;20408;-57
2022/01/22 12:23:12;;;;;;;39.50;21.52;;;2.90;99.90;;;;;;5033851;28;20045;-60
2022/01/22 12:25:37;;;;;;;;;;;2.90;99.90;;;;;;5033732;28;20053;-58
2022/01/22 12:28:07;;;;;;;42.13;23.83;;;2.90;99.90;;;;;;5033621;28;19905;-62
2022/01/22 12:30:49;;;;;;;57.67;29.60;;;2.90;99.90;;;;;;5033747;28;20357;-50
2022/01/22 12:33:34;;;;;;;47.58;23.88;;;2.90;99.90;;;;;;5033810;28;20022;-56
2022/01/22 12:36:02;;;;;;;31.75;18.50;;;2.80;99.90;;;;;;5033392;28;20083;-56
2022/01/22 12:38:50;;;;;;;41.75;20.52;;;2.90;99.90;;;;;;5033449;28;20029;-51
2022/01/22 12:43:51;;;;;;;39.85;20.20;;;2.90;99.90;;;;;;5033467;28;20129;-57
2022/01/22 12:46:16;;;;;;;31.63;16.90;;;2.90;99.90;;;;;;5033334;28;20096;-59
2022/01/22 12:48:43;;;;;;;32.78;16.60;;;2.90;99.90;;;;;;5033428;28;20033;-55
2022/01/22 12:51:10;;;;;;;34.20;17.60;;;3.00;99.90;;;;;;5033288;28;20026;-57
2022/01/22 12:53:37;;;;;;;33.22;17.83;;;3.00;99.90;;;;;;5033029;28;20036;-54
2022/01/22 12:58:38;;;;;;;32.35;18.27;;;3.20;99.90;;;;;;5033311;28;20026;-55
2022/01/22 13:01:27;;;;;;;35.25;16.98;;;3.20;99.90;;;;;;5033231;28;20025;-56
2022/01/22 13:03:55;;;;;;;33.92;17.70;;;3.30;99.90;;;;;;5033020;28;20036;-59
2022/01/22 13:06:25;;;;;;;32.13;16.50;;;3.40;99.90;;;;;;5033315;28;20560;-58
2022/01/22 13:08:56;;;;;;;27.38;13.95;;;3.50;99.90;;;;;;5033247;28;20387;-55
2022/01/22 13:11:26;;;;;;;28.25;14.77;;;3.60;99.90;;;;;;5033093;28;20112;-56
2022/01/22 13:13:52;;;;;;;29.33;15.02;;;3.60;99.90;;;;;;5033146;28;20053;-54
2022/01/22 13:16:18;;;;;;;34.55;18.58;;;3.70;99.90;;;;;;5033121;28;20384;-56
2022/01/22 13:18:58;;;;;;;28.83;16.88;;;3.70;99.90;;;;;;5034466;28;20021;-58
2022/01/22 13:21:29;;;;;;;28.77;15.70;;;3.70;99.90;;;;;;5037195;28;20036;-60
2022/01/22 13:24:10;;;;;;;33.47;17.48;;;3.70;99.90;;;;;;5036618;28;20236;-56
2022/01/22 13:26:52;;;;;;;31.52;16.75;;;3.70;99.90;;;;;;5037282;28;20045;-56
2022/01/22 13:29:25;;;;;;;29.02;15.50;;;3.70;99.90;;;;;;5036861;28;20029;-51
2022/01/22 13:32:31;;;;;;;24.60;14.85;;;3.70;99.90;;;;;;5036919;28;20013;-58
2022/01/22 13:45:21;;;;;;;;;;;3.80;99.90;;;;;;5037308;28;20032;-52
2022/01/22 13:47:56;;;;;;;28.98;15.93;;;4.00;99.90;;;;;;5036686;28;19905;-54
2022/01/22 13:50:22;;;;;;;23.33;13.48;;;4.00;99.90;;;;;;5036786;28;20373;-54
2022/01/22 13:52:49;;;;;;;27.83;14.27;;;4.10;99.90;;;;;;5036373;28;20021;-53
2022/01/22 13:55:15;;;;;;;23.55;13.82;;;4.30;99.90;;;;;;5036579;28;20049;-57
2022/01/22 13:57:44;;;;;;;24.00;14.27;;;4.40;99.90;;;;;;5036359;28;20022;-56
2022/01/22 14:00:13;;;;;;;21.65;13.82;;;4.50;99.90;;;;;;5036353;28;20464;-55
2022/01/22 14:05:16;;;;;;;22.67;12.48;;;5.30;99.90;;;;;;5036286;28;20040;-55
2022/01/22 14:07:48;;;;;;;22.77;12.70;;;5.30;99.90;;;;;;5036066;28;20372;-57
2022/01/22 14:10:20;;;;;;;22.40;12.27;;;5.40;99.90;;;;;;5036065;28;20112;-55
2022/01/22 14:12:51;;;;;;;20.65;12.88;;;5.70;99.90;;;;;;5036429;28;20033;-58
2022/01/22 14:15:27;;;;;;;26.33;14.90;;;5.90;99.90;;;;;;5036148;28;20143;-56
2022/01/22 14:20:43;;;;;;;16.17;9.80;;;6.20;98.90;;;;;;5036050;28;20076;-55
2022/01/22 14:23:08;;;;;;;14.80;9.07;;;6.10;99.00;;;;;;5035761;28;20103;-56
2022/01/22 14:25:54;;;;;;;16.58;10.00;;;6.00;98.70;;;;;;5035730;28;20128;-55
2022/01/22 14:28:21;;;;;;;35.53;17.98;;;5.90;98.80;;;;;;5035813;28;20025;-59
2022/01/22 14:30:48;;;;;;;23.88;13.48;;;5.80;99.30;;;;;;5035897;28;20025;-54
2022/01/22 14:33:20;;;;;;;27.05;14.50;;;5.70;99.90;;;;;;5035807;28;20022;-57
2022/01/22 14:35:59;;;;;;;24.45;13.50;;;5.60;99.90;;;;;;5035530;28;20041;-59
2022/01/22 14:38:46;;;;;;;26.88;14.48;;;5.40;99.90;;;;;;5035685;28;20065;-54
2022/01/22 14:46:45;;;;;;;37.88;19.13;;;4.80;99.90;;;;;;5035551;28;20379;-53
2022/01/22 14:49:12;;;;;;;29.67;17.77;;;4.80;99.90;;;;;;5035415;28;20021;-53